Terminal Aerodrome Forecast
Issued by NWS

Home | Current Version | Previous Version | Graphics & Text | Print | Product List | Glossary On
Versions: 1 2 3 4 5 6 7 8 9 10 11 12 13
794
FTUS43 KTOP 221729
TAFFOE
TAF
KFOE 221729Z 2218/2318 17015G22KT P6SM SKC
     FM230000 16010KT P6SM SCT200
     FM231200 17007KT 5SM BR BKN008 OVC014
     FM231500 17010KT P6SM BKN014=

USA.gov is the U.S. government's official web portal to all federal, state and local government web resources and services.